createdAt,value
2019-01-17T00:02:30.512Z,99.90
2019-01-17T00:05:17.616Z,99.90
2019-01-17T00:08:00.229Z,99.90
2019-01-17T00:10:52.966Z,99.90
2019-01-17T00:13:58.218Z,99.90
2019-01-17T00:16:43.605Z,99.90
2019-01-17T00:19:30.512Z,99.90
2019-01-17T00:22:15.218Z,99.90
2019-01-17T00:25:07.845Z,99.90
2019-01-17T00:27:53.431Z,99.90
2019-01-17T00:30:42.892Z,99.90
2019-01-17T00:33:23.154Z,99.90
2019-01-17T00:36:09.494Z,99.90
2019-01-17T00:38:59.829Z,99.90
2019-01-17T00:41:55.567Z,99.90
2019-01-17T00:44:48.351Z,99.90
2019-01-17T00:47:41.474Z,99.90
2019-01-17T00:50:19.652Z,99.90
2019-01-17T00:53:09.245Z,99.90
2019-01-17T00:55:56.205Z,99.90
2019-01-17T00:58:43.133Z,99.90
2019-01-17T01:01:17.831Z,99.90
2019-01-17T01:04:13.752Z,99.90
2019-01-17T01:07:00.747Z,99.90
2019-01-17T01:09:53.978Z,99.90
2019-01-17T01:12:49.919Z,99.90
2019-01-17T01:15:39.889Z,99.90
2019-01-17T01:18:18.661Z,99.90
2019-01-17T01:21:08.638Z,99.90
2019-01-17T01:23:57.702Z,99.90
2019-01-17T01:26:43.034Z,99.90
2019-01-17T01:29:42.657Z,99.90
2019-01-17T01:32:39.555Z,99.90
2019-01-17T01:35:18.510Z,99.90
2019-01-17T01:38:04.522Z,99.90
2019-01-17T01:40:43.145Z,99.90
2019-01-17T01:43:42.133Z,99.90
2019-01-17T01:46:32.054Z,99.90
2019-01-17T01:49:17.429Z,99.90
2019-01-17T01:51:49.926Z,99.90
2019-01-17T01:54:21.952Z,99.90
2019-01-17T01:56:46.533Z,99.90
2019-01-17T01:59:14.007Z,99.90
2019-01-17T02:01:41.405Z,99.90
2019-01-17T02:04:08.799Z,99.90
2019-01-17T02:06:37.206Z,99.90
2019-01-17T02:09:07.137Z,99.90
2019-01-17T02:11:34.533Z,99.90
2019-01-17T02:14:03.079Z,99.90
2019-01-17T02:16:30.478Z,99.90
2019-01-17T02:18:57.878Z,99.90
2019-01-17T02:21:25.458Z,99.90
2019-01-17T02:23:52.862Z,99.90
2019-01-17T02:26:20.261Z,99.90
2019-01-17T02:28:47.701Z,99.90
2019-01-17T02:31:15.085Z,99.90
2019-01-17T02:33:42.487Z,99.90
2019-01-17T02:36:09.938Z,99.90
2019-01-17T02:38:37.703Z,99.90
2019-01-17T02:41:05.294Z,99.90
2019-01-17T02:43:32.726Z,99.90
2019-01-17T02:46:00.145Z,99.90
2019-01-17T02:48:27.581Z,99.90
2019-01-17T02:50:55.006Z,99.90
2019-01-17T02:53:22.389Z,99.90
2019-01-17T02:55:49.787Z,99.90
2019-01-17T02:58:17.238Z,99.90
2019-01-17T03:00:44.629Z,99.90
2019-01-17T03:03:12.032Z,99.90
2019-01-17T03:05:39.489Z,99.90
2019-01-17T03:08:06.876Z,99.90
2019-01-17T03:10:34.288Z,99.90
2019-01-17T03:13:01.847Z,99.90
2019-01-17T03:15:29.246Z,99.90
2019-01-17T03:17:56.661Z,99.90
2019-01-17T03:20:24.107Z,99.90
2019-01-17T03:22:51.527Z,99.90
2019-01-17T03:25:19.022Z,99.90
2019-01-17T03:27:46.475Z,99.90
2019-01-17T03:30:16.555Z,99.90
2019-01-17T03:32:44.071Z,99.90
2019-01-17T03:35:12.089Z,99.90
2019-01-17T03:37:39.769Z,99.90
2019-01-17T03:40:09.896Z,99.90
2019-01-17T03:42:37.659Z,99.90
2019-01-17T03:45:06.365Z,99.90
2019-01-17T03:47:33.749Z,99.90
2019-01-17T03:50:01.176Z,99.90
2019-01-17T03:52:28.598Z,99.90
2019-01-17T03:54:56.021Z,99.90
2019-01-17T03:57:23.447Z,99.90
2019-01-17T03:59:50.830Z,99.90
2019-01-17T04:02:18.221Z,99.90
2019-01-17T04:04:45.679Z,99.90
2019-01-17T04:07:13.075Z,99.90
2019-01-17T04:09:40.462Z,99.90
2019-01-17T04:12:07.930Z,99.90
2019-01-17T04:14:35.316Z,99.90
2019-01-17T04:17:02.732Z,99.90
2019-01-17T04:19:30.190Z,99.90
2019-01-17T04:21:57.564Z,99.90
2019-01-17T04:24:24.946Z,99.90
2019-01-17T04:26:52.347Z,99.90
2019-01-17T04:29:19.741Z,99.90
2019-01-17T04:31:47.141Z,99.90
2019-01-17T04:34:14.757Z,99.90
2019-01-17T04:36:43.968Z,99.90
2019-01-17T04:39:11.533Z,99.90
2019-01-17T04:41:39.302Z,99.90
2019-01-17T04:44:06.693Z,99.90
2019-01-17T04:46:34.091Z,99.90
2019-01-17T04:49:01.596Z,99.90
2019-01-17T04:51:28.980Z,99.90
2019-01-17T04:53:56.386Z,99.90
2019-01-17T04:56:23.846Z,99.90
2019-01-17T04:58:51.272Z,99.90
2019-01-17T05:01:18.669Z,99.90
2019-01-17T05:03:46.470Z,99.90
2019-01-17T05:06:13.867Z,99.90
2019-01-17T05:08:41.266Z,99.90
2019-01-17T05:11:08.750Z,99.90
2019-01-17T05:13:36.138Z,99.90
2019-01-17T05:16:03.548Z,99.90
2019-01-17T05:18:30.997Z,99.90
2019-01-17T05:20:58.397Z,99.90
2019-01-17T05:23:25.794Z,99.90
2019-01-17T05:25:53.241Z,99.90
2019-01-17T05:28:20.648Z,99.90
2019-01-17T05:30:48.044Z,99.90
2019-01-17T05:33:15.909Z,99.90
2019-01-17T05:35:43.365Z,99.90
2019-01-17T05:38:10.942Z,99.90
2019-01-17T05:40:38.917Z,99.90
2019-01-17T05:43:06.336Z,99.90
2019-01-17T05:45:34.830Z,99.90
2019-01-17T05:48:02.413Z,99.90
2019-01-17T05:50:29.813Z,99.90
2019-01-17T05:52:57.213Z,99.90
2019-01-17T05:55:24.806Z,99.90
2019-01-17T05:57:52.211Z,99.90
2019-01-17T06:00:20.474Z,99.90
2019-01-17T06:02:49.749Z,99.90
2019-01-17T06:05:18.266Z,99.90
2019-01-17T06:07:45.645Z,99.90
2019-01-17T06:10:13.280Z,99.90
2019-01-17T06:12:40.685Z,99.90
2019-01-17T06:15:08.632Z,99.90
2019-01-17T06:17:36.090Z,99.90
2019-01-17T06:20:04.891Z,99.90
2019-01-17T06:22:32.290Z,99.90
2019-01-17T06:24:59.752Z,99.90
2019-01-17T06:27:27.160Z,99.90
2019-01-17T06:29:54.637Z,99.90
2019-01-17T06:32:22.269Z,99.90
2019-01-17T06:34:49.669Z,99.90
2019-01-17T06:37:17.068Z,99.90
2019-01-17T06:39:44.502Z,99.90
2019-01-17T06:42:12.340Z,99.90
2019-01-17T06:44:39.736Z,99.90
2019-01-17T06:47:07.443Z,99.90
2019-01-17T06:49:34.843Z,99.90
2019-01-17T06:52:02.267Z,99.90
2019-01-17T06:54:29.834Z,99.90
2019-01-17T06:56:57.237Z,99.90
2019-01-17T06:59:24.637Z,99.90
2019-01-17T07:01:52.127Z,99.90
2019-01-17T07:04:19.517Z,99.90
2019-01-17T07:06:46.917Z,99.90
2019-01-17T07:09:14.363Z,99.90
2019-01-17T07:11:41.752Z,99.90
2019-01-17T07:14:09.150Z,99.90
2019-01-17T07:16:36.605Z,99.90
2019-01-17T07:19:03.997Z,99.90
2019-01-17T07:21:31.389Z,99.90
2019-01-17T07:23:58.830Z,99.90
2019-01-17T07:26:26.264Z,99.90
2019-01-17T07:28:53.661Z,99.90
2019-01-17T07:31:21.120Z,99.90
2019-01-17T07:33:48.525Z,99.90
2019-01-17T07:36:15.955Z,99.90
2019-01-17T07:38:43.418Z,99.90
2019-01-17T07:41:11.037Z,99.90
2019-01-17T07:43:38.445Z,99.90
2019-01-17T07:46:06.026Z,99.90
2019-01-17T07:48:33.434Z,99.90
2019-01-17T07:51:00.834Z,99.90
2019-01-17T07:53:28.417Z,99.90
2019-01-17T07:55:55.836Z,99.90
2019-01-17T07:58:23.225Z,99.90
2019-01-17T08:00:50.802Z,99.90
2019-01-17T08:03:18.205Z,99.90
2019-01-17T08:05:45.611Z,99.90
2019-01-17T08:08:13.074Z,99.90
2019-01-17T08:10:40.478Z,99.90
2019-01-17T08:13:07.879Z,99.90
2019-01-17T08:15:35.354Z,99.90
2019-01-17T08:18:03.054Z,99.90
2019-01-17T08:20:30.445Z,99.90
2019-01-17T08:22:59.284Z,99.90
2019-01-17T08:25:26.781Z,99.90
2019-01-17T08:27:56.128Z,99.90
2019-01-17T08:30:25.770Z,99.90
2019-01-17T08:32:53.181Z,99.90
2019-01-17T08:35:20.786Z,99.90
2019-01-17T08:37:48.209Z,99.90
2019-01-17T08:40:26.925Z,99.90
2019-01-17T08:42:55.034Z,99.90
2019-01-17T08:45:22.526Z,99.90
2019-01-17T08:47:49.942Z,99.90
2019-01-17T08:50:17.457Z,99.90
2019-01-17T08:52:44.842Z,99.90
2019-01-17T08:55:12.234Z,99.90
2019-01-17T08:57:40.041Z,99.90
2019-01-17T09:00:11.011Z,99.90
2019-01-17T09:02:38.400Z,99.90
2019-01-17T09:05:07.733Z,99.90
2019-01-17T09:07:35.125Z,99.90
2019-01-17T09:10:03.248Z,99.90
2019-01-17T09:12:30.706Z,99.90
2019-01-17T09:14:58.112Z,99.90
2019-01-17T09:17:25.509Z,99.90
2019-01-17T09:19:52.952Z,99.90
2019-01-17T09:22:20.350Z,99.90
2019-01-17T09:24:47.757Z,99.30
2019-01-17T09:27:15.419Z,98.70
2019-01-17T09:29:42.821Z,99.90
2019-01-17T09:32:10.218Z,99.10
2019-01-17T09:34:37.805Z,98.60
2019-01-17T09:37:05.203Z,97.30
2019-01-17T09:39:32.757Z,97.30
2019-01-17T09:42:00.673Z,96.40
2019-01-17T09:44:28.162Z,95.80
2019-01-17T09:46:55.658Z,95.10
2019-01-17T09:49:23.190Z,93.60
2019-01-17T09:51:50.595Z,93.10
2019-01-17T09:54:18.005Z,92.30
2019-01-17T09:56:45.741Z,92.60
2019-01-17T09:59:13.133Z,89.40
2019-01-17T10:01:40.549Z,91.90
2019-01-17T10:04:08.005Z,91.70
2019-01-17T10:06:35.503Z,90.90
2019-01-17T10:09:06.081Z,90.10
2019-01-17T10:11:33.635Z,90.00
2019-01-17T10:14:01.023Z,89.60
2019-01-17T10:17:19.318Z,88.00
2019-01-17T10:20:20.394Z,88.60
2019-01-17T10:23:16.552Z,86.90
2019-01-17T10:26:09.882Z,86.20
2019-01-17T10:29:24.649Z,85.60
2019-01-17T10:32:21.509Z,85.00
2019-01-17T10:35:23.530Z,84.00
2019-01-17T10:38:21.357Z,83.70
2019-01-17T10:41:00.473Z,83.20
2019-01-17T10:43:52.866Z,83.20
2019-01-17T10:46:52.739Z,81.10
2019-01-17T10:50:07.093Z,81.40
2019-01-17T10:52:52.061Z,81.10
2019-01-17T10:55:52.965Z,80.30
2019-01-17T10:58:35.940Z,80.20
2019-01-17T11:02:06.309Z,78.80
2019-01-17T11:05:01.743Z,78.20
2019-01-17T11:08:32.042Z,78.30
2019-01-17T11:11:41.064Z,77.80
2019-01-17T11:14:23.925Z,77.70
2019-01-17T11:17:54.750Z,77.90
2019-01-17T11:20:40.087Z,77.70
2019-01-17T11:23:29.786Z,77.10
2019-01-17T11:27:06.637Z,77.20
2019-01-17T11:30:10.733Z,76.30
2019-01-17T11:33:31.987Z,76.40
2019-01-17T11:36:33.110Z,76.10
2019-01-17T11:39:28.525Z,76.00
2019-01-17T11:42:22.566Z,76.20
2019-01-17T11:45:21.794Z,74.80
2019-01-17T11:48:28.811Z,75.40
2019-01-17T11:51:36.749Z,75.70
2019-01-17T11:54:40.723Z,75.10
2019-01-17T11:57:38.577Z,75.40
2019-01-17T12:00:31.696Z,74.80
2019-01-17T12:03:24.549Z,75.20
2019-01-17T12:05:52.030Z,75.00
2019-01-17T12:08:19.426Z,74.30
2019-01-17T12:10:46.826Z,75.10
2019-01-17T12:13:17.425Z,73.90
2019-01-17T12:15:43.474Z,72.80
2019-01-17T12:18:10.869Z,73.10
2019-01-17T12:20:38.430Z,72.80
2019-01-17T12:23:05.823Z,72.90
2019-01-17T12:25:33.204Z,72.10
2019-01-17T12:28:00.674Z,72.20
2019-01-17T12:30:28.068Z,69.70
2019-01-17T12:32:55.469Z,70.40
2019-01-17T12:35:22.912Z,69.70
2019-01-17T12:37:50.294Z,70.30
2019-01-17T12:40:17.693Z,70.40
2019-01-17T12:42:45.389Z,70.80
2019-01-17T12:45:12.773Z,70.20
2019-01-17T12:47:40.157Z,70.50
2019-01-17T12:50:12.357Z,69.10
2019-01-17T12:52:39.749Z,69.30
2019-01-17T12:55:07.301Z,68.80
2019-01-17T12:57:34.757Z,69.60
2019-01-17T13:00:07.663Z,69.70
2019-01-17T13:02:33.269Z,69.50
2019-01-17T13:05:01.093Z,69.10
2019-01-17T13:07:28.626Z,68.30
2019-01-17T13:09:56.019Z,69.20
2019-01-17T13:12:23.631Z,69.00
2019-01-17T13:14:51.064Z,69.80
2019-01-17T13:17:18.413Z,69.40
2019-01-17T13:19:45.864Z,69.40
2019-01-17T13:22:13.245Z,69.60
2019-01-17T13:24:40.632Z,69.70
2019-01-17T13:27:08.296Z,69.90
2019-01-17T13:29:35.691Z,70.80
2019-01-17T13:32:03.194Z,70.60
2019-01-17T13:34:30.620Z,70.80
2019-01-17T13:36:58.011Z,70.70
2019-01-17T13:39:25.412Z,71.40
2019-01-17T13:41:52.883Z,70.50
2019-01-17T13:44:20.277Z,70.80
2019-01-17T13:46:47.669Z,71.10
2019-01-17T13:49:15.357Z,71.50
2019-01-17T13:51:42.746Z,72.00
2019-01-17T13:54:10.144Z,72.50
2019-01-17T13:56:37.809Z,72.80
2019-01-17T13:59:05.205Z,73.10
2019-01-17T14:01:32.770Z,73.30
2019-01-17T14:04:00.938Z,73.40
2019-01-17T14:06:28.325Z,72.90
2019-01-17T14:08:55.722Z,72.90
2019-01-17T14:11:23.437Z,74.00
2019-01-17T14:13:50.832Z,74.30
2019-01-17T14:16:18.225Z,74.80
2019-01-17T14:18:45.920Z,75.10
2019-01-17T14:21:13.314Z,76.20
2019-01-17T14:23:40.706Z,75.40
2019-01-17T14:26:08.307Z,76.80
2019-01-17T14:28:35.696Z,76.90
2019-01-17T14:31:03.081Z,76.50
2019-01-17T14:33:30.533Z,77.30
2019-01-17T14:35:57.939Z,77.40
2019-01-17T14:38:25.333Z,77.10
2019-01-17T14:40:52.778Z,77.80
2019-01-17T14:43:20.173Z,79.80
2019-01-17T14:45:47.581Z,78.80
2019-01-17T14:48:15.167Z,80.10
2019-01-17T14:50:42.557Z,79.60
2019-01-17T14:53:09.946Z,79.70
2019-01-17T14:55:37.530Z,79.70
2019-01-17T14:58:04.922Z,79.10
2019-01-17T15:00:33.109Z,80.10
2019-01-17T15:03:00.750Z,80.80
2019-01-17T15:05:28.650Z,81.80
2019-01-17T15:07:56.032Z,82.10
2019-01-17T15:10:32.419Z,82.20
2019-01-17T15:12:59.804Z,82.80
2019-01-17T15:15:27.226Z,81.00
2019-01-17T15:17:54.661Z,82.10
2019-01-17T15:20:22.037Z,82.20
2019-01-17T15:22:50.496Z,82.20
2019-01-17T15:25:17.931Z,82.40
2019-01-17T15:27:45.349Z,82.50
2019-01-17T15:30:16.049Z,81.90
2019-01-17T15:32:43.605Z,82.30
2019-01-17T15:35:11.010Z,82.90
2019-01-17T15:37:38.397Z,83.00
2019-01-17T15:40:09.157Z,83.20
2019-01-17T15:42:36.551Z,83.20
2019-01-17T15:45:04.744Z,83.60
2019-01-17T15:47:32.183Z,83.60
2019-01-17T15:49:59.582Z,83.60
2019-01-17T15:52:26.990Z,84.90
2019-01-17T15:54:54.400Z,85.20
2019-01-17T15:57:23.597Z,84.30
2019-01-17T15:59:51.000Z,85.40
2019-01-17T16:02:18.683Z,86.50
2019-01-17T16:04:46.278Z,86.90
2019-01-17T16:07:13.691Z,87.60
2019-01-17T16:09:41.274Z,86.20
2019-01-17T16:12:08.669Z,86.20
2019-01-17T16:14:36.089Z,86.50
2019-01-17T16:17:03.530Z,86.30
2019-01-17T16:19:30.932Z,89.40
2019-01-17T16:21:59.431Z,90.80
2019-01-17T16:24:26.899Z,91.80
2019-01-17T16:26:54.284Z,91.60
2019-01-17T16:29:21.683Z,89.90
2019-01-17T16:31:49.137Z,93.80
2019-01-17T16:34:16.570Z,92.80
2019-01-17T16:36:43.968Z,94.20
2019-01-17T16:39:11.752Z,93.80
2019-01-17T16:41:39.150Z,95.60
2019-01-17T16:44:06.543Z,94.30
2019-01-17T16:46:34.130Z,94.00
2019-01-17T16:49:01.530Z,93.50
2019-01-17T16:51:28.920Z,92.80
2019-01-17T16:53:56.363Z,93.00
2019-01-17T16:56:23.760Z,92.30
2019-01-17T16:58:51.163Z,94.80
2019-01-17T17:01:18.623Z,93.40
2019-01-17T17:03:46.376Z,92.90
2019-01-17T17:06:14.066Z,93.40
2019-01-17T17:08:41.531Z,95.10
2019-01-17T17:11:08.947Z,93.20
2019-01-17T17:13:36.348Z,92.70
2019-01-17T17:16:03.798Z,94.50
2019-01-17T17:18:31.187Z,95.10
2019-01-17T17:20:58.589Z,93.60
2019-01-17T17:23:26.371Z,94.70
2019-01-17T17:25:53.776Z,93.80
2019-01-17T17:28:21.169Z,95.40
2019-01-17T17:30:48.768Z,93.60
2019-01-17T17:33:16.154Z,94.00
2019-01-17T17:35:43.573Z,94.50
2019-01-17T17:38:11.248Z,95.30
2019-01-17T17:40:38.655Z,94.50
2019-01-17T17:43:06.050Z,94.30
2019-01-17T17:45:33.492Z,95.60
2019-01-17T17:48:01.828Z,95.70
2019-01-17T17:50:29.225Z,95.00
2019-01-17T17:52:56.665Z,94.90
2019-01-17T17:55:24.065Z,95.20
2019-01-17T17:57:51.473Z,94.80
2019-01-17T18:00:27.649Z,95.00
2019-01-17T18:02:55.308Z,95.40
2019-01-17T18:05:22.751Z,94.30
2019-01-17T18:07:50.351Z,94.40
2019-01-17T18:10:17.747Z,95.70
2019-01-17T18:12:45.151Z,94.90
2019-01-17T18:15:13.568Z,95.30
2019-01-17T18:17:40.893Z,96.80
2019-01-17T18:20:09.593Z,99.50
2019-01-17T18:22:37.023Z,98.10
2019-01-17T18:25:04.857Z,99.90
2019-01-17T18:27:32.267Z,99.20
2019-01-17T18:29:59.842Z,98.80
2019-01-17T18:32:27.257Z,97.50
2019-01-17T18:34:54.646Z,98.70
2019-01-17T18:37:22.104Z,97.60
2019-01-17T18:39:49.509Z,99.60
2019-01-17T18:42:16.900Z,99.60
2019-01-17T18:44:44.378Z,99.00
2019-01-17T18:47:11.799Z,99.90
2019-01-17T18:49:39.201Z,99.90
2019-01-17T18:52:06.631Z,99.90
2019-01-17T18:54:34.023Z,99.90
2019-01-17T18:57:01.421Z,99.90
2019-01-17T18:59:28.968Z,99.90
2019-01-17T19:01:56.370Z,99.90
2019-01-17T19:04:23.904Z,99.90
2019-01-17T19:06:51.533Z,99.90
2019-01-17T19:09:18.946Z,99.90
2019-01-17T19:11:46.349Z,99.90
2019-01-17T19:14:13.790Z,99.90
2019-01-17T19:16:41.193Z,99.90
2019-01-17T19:19:08.593Z,99.90
2019-01-17T19:21:36.028Z,99.90
2019-01-17T19:24:03.434Z,99.90
2019-01-17T19:26:30.823Z,99.90
2019-01-17T19:28:58.242Z,99.90
2019-01-17T19:31:25.637Z,99.90
2019-01-17T19:33:53.021Z,99.90
2019-01-17T19:36:20.586Z,99.90
2019-01-17T19:38:48.010Z,99.90
2019-01-17T19:41:15.396Z,99.90
2019-01-17T19:43:43.285Z,99.90
2019-01-17T19:46:10.684Z,99.90
2019-01-17T19:48:38.089Z,99.90
2019-01-17T19:51:05.592Z,99.90
2019-01-17T19:53:32.962Z,99.90
2019-01-17T19:56:00.364Z,99.90
2019-01-17T19:58:29.015Z,99.90
2019-01-17T20:00:56.589Z,99.90
2019-01-17T20:03:24.333Z,99.90
2019-01-17T20:05:52.061Z,99.90
2019-01-17T20:08:19.465Z,99.90
2019-01-17T20:10:46.852Z,99.90
2019-01-17T20:13:14.578Z,99.90
2019-01-17T20:15:42.059Z,99.90
2019-01-17T20:18:09.523Z,99.90
2019-01-17T20:20:36.974Z,99.90
2019-01-17T20:23:04.676Z,99.90
2019-01-17T20:25:32.283Z,99.90
2019-01-17T20:27:59.706Z,99.90
2019-01-17T20:30:29.687Z,99.90
2019-01-17T20:32:58.899Z,99.90
2019-01-17T20:35:26.650Z,99.90
2019-01-17T20:37:54.045Z,99.90
2019-01-17T20:40:22.424Z,99.90
2019-01-17T20:42:49.859Z,99.90
2019-01-17T20:45:17.349Z,99.90
2019-01-17T20:47:44.950Z,99.90
2019-01-17T20:50:17.984Z,99.90
2019-01-17T20:52:45.374Z,99.90
2019-01-17T20:55:13.077Z,99.90
2019-01-17T20:57:41.303Z,99.90
2019-01-17T21:00:29.941Z,99.90
2019-01-17T21:02:57.678Z,99.90
2019-01-17T21:05:25.378Z,99.90
2019-01-17T21:07:53.660Z,99.90
2019-01-17T21:10:21.197Z,99.90
2019-01-17T21:12:48.599Z,99.90
2019-01-17T21:15:15.978Z,99.90
2019-01-17T21:17:43.596Z,99.90
2019-01-17T21:20:11.281Z,99.90
2019-01-17T21:22:38.585Z,99.90
2019-01-17T21:25:08.915Z,99.90
2019-01-17T21:27:36.325Z,99.90
2019-01-17T21:30:06.847Z,99.90
2019-01-17T21:32:34.503Z,99.90
2019-01-17T21:35:01.893Z,99.90
2019-01-17T21:37:29.285Z,99.90
2019-01-17T21:39:56.767Z,99.90
2019-01-17T21:42:24.171Z,99.90
2019-01-17T21:44:51.572Z,99.90
2019-01-17T21:47:19.026Z,99.90
2019-01-17T21:49:46.417Z,99.90
2019-01-17T21:52:13.813Z,99.90
2019-01-17T21:54:41.463Z,99.90
2019-01-17T21:57:08.862Z,99.90
2019-01-17T21:59:36.257Z,99.90
2019-01-17T22:02:03.685Z,99.90
2019-01-17T22:04:31.427Z,99.90
2019-01-17T22:06:59.131Z,99.90
2019-01-17T22:09:26.565Z,99.90
2019-01-17T22:11:53.959Z,99.90
2019-01-17T22:14:21.367Z,99.90
2019-01-17T22:16:48.819Z,99.90
2019-01-17T22:19:16.222Z,99.90
2019-01-17T22:21:43.617Z,99.90
2019-01-17T22:24:11.052Z,99.90
2019-01-17T22:26:38.459Z,99.90
2019-01-17T22:29:05.848Z,99.90
2019-01-17T22:31:33.493Z,99.90
2019-01-17T22:34:02.727Z,99.90
2019-01-17T22:36:30.079Z,99.90
2019-01-17T22:38:57.519Z,99.90
2019-01-17T22:41:25.023Z,99.90
2019-01-17T22:43:52.626Z,99.90
2019-01-17T22:46:20.215Z,99.90
2019-01-17T22:48:47.615Z,99.90
2019-01-17T22:51:15.007Z,99.90
2019-01-17T22:53:42.470Z,99.90
2019-01-17T22:56:09.861Z,99.90
2019-01-17T22:58:37.268Z,99.90
2019-01-17T23:01:25.593Z,99.90
2019-01-17T23:03:54.355Z,99.90
2019-01-17T23:06:21.982Z,99.90
2019-01-17T23:08:49.387Z,99.90
2019-01-17T23:11:16.787Z,99.90
2019-01-17T23:13:44.219Z,99.90
2019-01-17T23:16:11.591Z,99.90
2019-01-17T23:18:38.985Z,99.90
2019-01-17T23:21:06.419Z,99.90
2019-01-17T23:23:33.829Z,99.90
2019-01-17T23:26:01.364Z,99.90
2019-01-17T23:28:29.075Z,99.90
2019-01-17T23:30:56.461Z,99.90
2019-01-17T23:33:23.855Z,99.90
2019-01-17T23:35:51.355Z,99.90
2019-01-17T23:38:18.757Z,99.90
2019-01-17T23:40:46.151Z,99.90
2019-01-17T23:43:13.950Z,99.90
2019-01-17T23:45:41.348Z,99.90
2019-01-17T23:48:08.743Z,99.90
2019-01-17T23:50:36.145Z,99.90
2019-01-17T23:53:04.386Z,99.90
2019-01-17T23:55:31.782Z,99.90
2019-01-17T23:57:59.439Z,99.90
